Time;durP1;ratioP1;P1;durP2;ratioP2;P2;SDS_P1;SDS_P2;PMS_P1;PMS_P2;Temp;Humidity;BMP_temperature;BMP_pressure;BME280_temperature;BME280_humidity;BME280_pressure;Samples;Min_cycle;Max_cycle;Signal;HPM_P1;HPM_P2
2021/12/12 00:00:46;;;;;;;5.67;5.27;;;;;;;11.88;68.71;93102.91;5084705;28;20408;-69
2021/12/12 00:03:21;;;;;;;7.30;5.50;;;;;;;11.83;68.90;93095.75;5085466;28;20405;-69
2021/12/12 00:05:51;;;;;;;6.67;4.57;;;;;;;11.04;72.00;93093.16;5066359;28;20907;-69
2021/12/12 00:08:18;;;;;;;8.80;8.00;;;;;;;11.50;70.85;93107.03;5066503;28;20405;-69
2021/12/12 00:10:47;;;;;;;8.77;7.47;;;;;;;11.43;70.98;93106.41;5066018;28;20432;-69
2021/12/12 00:13:26;;;;;;;7.70;6.90;;;;;;;10.72;72.71;93132.91;5065812;28;20453;-69
2021/12/12 00:15:55;;;;;;;7.67;6.87;;;;;;;11.37;71.16;93121.22;5066415;28;20397;-69
2021/12/12 00:18:21;;;;;;;7.40;6.67;;;;;;;11.08;72.77;93131.75;5066340;28;20757;-69
2021/12/12 00:20:48;;;;;;;8.10;7.30;;;;;;;11.45;71.16;93144.41;5066130;28;20489;-69
2021/12/12 00:23:13;;;;;;;9.13;8.23;;;;;;;11.48;71.34;93130.84;5066397;28;20163;-70
2021/12/12 00:25:45;;;;;;;9.73;7.17;;;;;;;11.44;71.50;93131.53;5066496;28;20397;-70
2021/12/12 00:28:15;;;;;;;10.53;7.97;;;;;;;11.47;71.07;93139.72;5065297;28;20287;-69
2021/12/12 00:30:46;;;;;;;8.80;7.90;;;;;;;11.63;70.91;93160.94;5064751;28;20393;-70
2021/12/12 00:33:12;;;;;;;10.67;8.73;;;;;;;11.65;70.50;93172.78;5065058;28;20881;-69
2021/12/12 00:35:38;;;;;;;10.03;9.13;;;;;;;11.58;70.57;93171.34;5064512;28;20416;-70
2021/12/12 00:38:10;;;;;;;10.23;9.23;;;;;;;11.10;71.84;93166.34;5066612;28;20416;-69
2021/12/12 00:40:43;;;;;;;11.83;10.67;;;;;;;11.41;71.50;93161.63;5065806;28;20446;-69
2021/12/12 00:43:22;;;;;;;12.30;11.10;;;;;;;11.38;71.34;93172.56;5066047;28;20554;-69
2021/12/12 00:45:50;;;;;;;7.17;6.43;;;;;;;11.41;70.30;93179.97;5065988;28;20390;-69
2021/12/12 00:48:15;;;;;;;6.00;5.50;;;;;;;11.53;69.62;93180.72;5064805;28;20472;-69
2021/12/12 00:50:43;;;;;;;6.40;5.30;;;;;;;11.38;68.79;93183.03;5064515;28;20405;-69
2021/12/12 00:53:11;;;;;;;1.93;1.83;;;;;;;11.11;68.01;93182.81;5064802;28;20202;-69
2021/12/12 00:55:39;;;;;;;1.40;1.30;;;;;;;11.01;67.53;93180.03;5064948;28;20404;-70
2021/12/12 00:58:10;;;;;;;1.03;0.93;;;;;;;10.73;67.40;93197.28;5064376;28;20508;-70
2021/12/12 01:00:42;;;;;;;0.80;0.80;;;;;;;11.04;66.42;93203.91;5064574;28;20381;-69
2021/12/12 01:03:10;;;;;;;0.70;0.70;;;;;;;10.84;66.64;93221.84;5065329;28;20413;-70
2021/12/12 01:05:38;;;;;;;1.20;1.10;;;;;;;11.24;65.76;93200.88;5064299;28;20409;-71
2021/12/12 01:08:06;;;;;;;1.37;1.00;;;;;;;11.53;64.00;93199.06;5064426;28;20469;-71
2021/12/12 01:10:37;;;;;;;0.97;0.90;;;;;;;11.64;63.39;93186.09;5062744;28;20883;-70
2021/12/12 01:13:04;;;;;;;1.30;0.83;;;;;;;11.23;64.79;93186.22;5065361;28;20491;-70
2021/12/12 01:15:29;;;;;;;1.03;1.00;;;;;;;11.03;64.95;93197.09;5068353;28;20420;-70
2021/12/12 01:17:58;;;;;;;1.70;1.00;;;;;;;11.65;63.24;93213.91;5067144;28;20432;-69
2021/12/12 01:20:23;;;;;;;8.57;6.73;;;;;;;11.42;67.66;93215.63;5068388;28;20245;-69
2021/12/12 01:22:52;;;;;;;8.77;7.37;;;;;;;11.47;67.88;93218.31;5068133;28;20424;-70
2021/12/12 01:25:26;;;;;;;10.07;8.10;;;;;;;11.62;67.40;93219.63;5066533;28;20232;-71
2021/12/12 01:27:52;;;;;;;7.53;6.93;;;;;;;11.52;67.84;93234.13;5067938;28;20420;-70
2021/12/12 01:30:19;;;;;;;7.37;6.73;;;;;;;11.53;68.17;93227.88;5067857;28;20413;-71
2021/12/12 01:32:47;;;;;;;9.33;7.20;;;;;;;11.55;67.87;93221.56;5067861;28;20463;-71
2021/12/12 01:35:17;;;;;;;7.10;6.50;;;;;;;11.06;69.02;93196.63;5067769;28;20417;-70
2021/12/12 01:38:50;;;;;;;6.40;3.33;;;;;;;10.98;68.01;93207.44;5067753;28;20428;-70
2021/12/12 01:40:32;;;;;;;2.40;2.20;;;;;;;11.14;66.48;93208.56;5067961;28;20420;-69
2021/12/12 01:43:37;;;;;;;1.13;1.03;;;;;;;9.65;69.20;93191.47;5067907;28;20413;-70
2021/12/12 01:46:11;;;;;;;2.03;1.40;;;;;;;9.73;70.09;93191.13;5046055;28;20268;-69
2021/12/12 01:48:45;;;;;;;1.00;1.00;;;;;;;9.91;70.00;93200.72;5067546;28;20435;-70
2021/12/12 01:51:13;;;;;;;0.80;0.80;;;;;;;9.25;72.51;93226.78;5067557;28;20398;-69
2021/12/12 01:53:42;;;;;;;1.63;1.10;;;;;;;9.35;70.73;93239.28;5065594;28;20524;-70
2021/12/12 01:56:18;;;;;;;1.27;1.17;;;;;;;9.55;69.93;93237.19;5067443;28;20790;-70
2021/12/12 01:58:46;;;;;;;1.97;1.77;;;;;;;9.61;70.98;93253.00;5067501;28;20508;-70
2021/12/12 02:01:16;;;;;;;1.47;1.37;;;;;;;9.73;70.56;93252.03;5066941;28;20507;-70
2021/12/12 02:03:48;;;;;;;1.67;1.20;;;;;;;9.21;71.56;93256.16;5067333;28;20896;-71
2021/12/12 02:06:16;;;;;;;0.97;0.97;;;;;;;8.82;73.33;93260.81;5067287;28;20754;-71
2021/12/12 02:08:43;;;;;;;1.43;1.30;;;;;;;9.07;71.98;93258.94;5067420;28;20764;-71
2021/12/12 02:11:16;;;;;;;1.63;1.53;;;;;;;8.81;73.10;93264.44;5067007;28;20469;-71
2021/12/12 02:13:48;;;;;;;2.20;1.40;;;;;;;9.12;72.05;93240.00;5066620;28;20552;-70
2021/12/12 02:16:15;;;;;;;1.77;1.67;;;;;;;8.95;72.94;93256.25;5066678;28;20393;-71
2021/12/12 02:18:46;;;;;;;1.80;1.70;;;;;;;9.11;71.51;93238.41;5066222;28;20480;-69
2021/12/12 02:21:22;;;;;;;2.03;1.40;;;;;;;9.41;69.92;93243.63;5066612;28;20424;-70
2021/12/12 02:35:23;;;;;;;1.13;1.03;;;;;;;9.40;69.94;93249.06;5066733;28;20416;-71
2021/12/12 02:37:51;;;;;;;1.13;1.10;;;;;;;9.54;69.46;93272.19;5066622;28;20479;-71
2021/12/12 02:40:27;;;;;;;1.20;1.10;;;;;;;9.60;69.29;93267.06;5066167;28;20484;-71
2021/12/12 02:42:54;;;;;;;3.07;1.60;;;;;;;9.65;67.92;93270.59;5066445;28;20427;-71
2021/12/12 02:45:21;;;;;;;1.23;1.13;;;;;;;9.96;67.78;93282.63;5066002;28;20406;-72
2021/12/12 02:47:54;;;;;;;1.93;1.00;;;;;;;10.20;66.84;93289.72;5064553;28;20436;-72
2021/12/12 02:50:35;;;;;;;1.83;1.37;;;;;;;9.93;67.79;93290.13;5065792;28;20472;-72
2021/12/12 02:53:34;;;;;;;1.47;1.10;;;;;;;10.13;67.06;93292.41;5065910;28;20483;-72
2021/12/12 02:56:06;;;;;;;1.20;1.10;;;;;;;9.15;70.48;93284.72;5064324;28;20424;-72
2021/12/12 02:58:31;;;;;;;2.40;1.50;;;;;;;9.39;69.46;93279.63;5066257;28;20524;-71
2021/12/12 03:01:08;;;;;;;2.00;1.30;;;;;;;9.03;70.96;93298.69;5065564;28;20416;-71
2021/12/12 03:03:37;;;;;;;1.73;1.60;;;;;;;9.76;67.92;93292.56;5065855;28;20319;-72
2021/12/12 03:06:06;;;;;;;1.77;1.20;;;;;;;9.62;68.89;93296.38;5065522;28;20405;-72
2021/12/12 03:08:32;;;;;;;5.33;1.50;;;;;;;9.43;68.98;93283.38;5065726;28;20431;-72
2021/12/12 03:10:59;;;;;;;1.07;1.07;;;;;;;9.27;69.47;93302.25;5065366;28;20409;-71
2021/12/12 03:13:25;;;;;;;1.00;1.00;;;;;;;9.00;69.97;93299.94;5065582;28;20488;-71
2021/12/12 03:15:53;;;;;;;2.70;1.20;;;;;;;9.32;69.27;93303.19;5065476;28;20472;-71
2021/12/12 03:18:24;;;;;;;0.90;0.90;;;;;;;9.24;68.69;93300.06;5065142;28;20528;-71
2021/12/12 03:20:53;;;;;;;2.10;1.00;;;;;;;8.96;69.97;93294.34;5063940;28;20429;-71
2021/12/12 03:23:33;;;;;;;1.67;1.57;;;;;;;9.26;69.16;93304.06;5064152;28;20428;-71
2021/12/12 03:26:07;;;;;;;0.93;0.93;;;;;;;9.42;68.48;93310.50;5065245;28;20425;-71
2021/12/12 03:28:36;;;;;;;0.93;0.90;;;;;;;9.89;66.83;93308.06;5065453;28;20417;-72
2021/12/12 03:31:05;;;;;;;1.13;1.03;;;;;;;9.95;66.27;93322.84;5065162;28;20413;-71
2021/12/12 03:33:32;;;;;;;0.90;0.90;;;;;;;10.08;66.64;93336.75;5065248;28;20484;-72
2021/12/12 03:36:02;;;;;;;1.20;1.10;;;;;;;9.89;67.35;93344.63;5064766;28;20405;-72
2021/12/12 03:38:31;;;;;;;1.10;1.10;;;;;;;10.71;64.34;93362.31;5065230;28;20432;-72
2021/12/12 03:41:01;;;;;;;2.67;2.23;;;;;;;10.09;65.95;93367.88;5063923;28;20408;-73
2021/12/12 03:43:27;;;;;;;3.67;3.03;;;;;;;10.70;65.52;93376.44;5065335;28;20428;-72
2021/12/12 03:45:52;;;;;;;2.30;2.13;;;;;;;10.68;65.55;93381.09;5065010;28;20466;-71
2021/12/12 03:48:23;;;;;;;6.60;2.60;;;;;;;10.20;66.90;93386.44;5065162;28;20429;-71
2021/12/12 03:50:52;;;;;;;2.83;2.47;;;;;;;10.15;66.44;93400.19;5064938;28;20155;-71
2021/12/12 03:53:17;;;;;;;2.33;2.00;;;;;;;10.11;67.02;93393.78;5065023;28;20843;-72
2021/12/12 03:55:44;;;;;;;2.40;2.20;;;;;;;9.95;67.20;93400.44;5063616;28;20455;-72
2021/12/12 03:58:12;;;;;;;2.40;2.20;;;;;;;9.60;67.95;93402.88;5063400;28;20274;-72
2021/12/12 04:00:43;;;;;;;2.07;1.97;;;;;;;8.53;71.72;93403.91;5064806;28;20409;-71
2021/12/12 04:03:10;;;;;;;2.20;1.87;;;;;;;9.31;69.20;93405.97;5063192;28;20425;-70
2021/12/12 04:05:36;;;;;;;2.20;2.00;;;;;;;9.71;67.50;93417.81;5064834;28;20452;-71
2021/12/12 04:08:03;;;;;;;2.47;2.27;;;;;;;9.70;67.50;93424.84;5064694;28;20425;-72
2021/12/12 04:10:28;;;;;;;3.33;2.80;;;;;;;9.73;67.32;93421.00;5063089;28;20182;-71
2021/12/12 04:12:56;;;;;;;2.57;2.40;;;;;;;9.33;67.86;93431.88;5064504;28;20429;-71
2021/12/12 04:15:23;;;;;;;2.40;2.17;;;;;;;9.68;66.55;93454.81;5063251;28;20282;-72
2021/12/12 04:17:48;;;;;;;3.00;2.70;;;;;;;9.53;67.35;93445.53;5064785;28;20421;-73
2021/12/12 04:20:37;;;;;;;4.73;3.00;;;;;;;9.04;69.20;93455.03;5064456;28;20575;-72
2021/12/12 04:23:13;;;;;;;2.57;2.47;;;;;;;9.69;67.22;93461.63;5064547;28;20206;-71
2021/12/12 04:25:38;;;;;;;2.50;2.40;;;;;;;9.74;67.24;93473.03;5063096;28;20404;-72
2021/12/12 04:28:04;;;;;;;2.27;2.13;;;;;;;9.50;67.82;93492.94;5064593;28;20440;-71
2021/12/12 04:30:29;;;;;;;3.83;2.30;;;;;;;9.21;67.10;93464.94;5064222;28;20166;-70
2021/12/12 04:32:55;;;;;;;2.53;2.40;;;;;;;9.14;67.29;93480.66;5062971;28;20194;-71
2021/12/12 04:35:25;;;;;;;2.20;2.10;;;;;;;8.70;67.68;93492.81;5063016;28;20177;-70
2021/12/12 04:37:52;;;;;;;2.53;2.33;;;;;;;7.74;70.20;93502.28;5064253;28;20179;-71
2021/12/12 04:40:21;;;;;;;2.43;1.93;;;;;;;7.42;71.23;93497.75;5064241;28;20436;-70
2021/12/12 04:42:51;;;;;;;1.63;1.53;;;;;;;7.38;70.96;93501.78;5063040;28;20425;-71
2021/12/12 04:45:42;;;;;;;2.87;2.60;;;;;;;7.86;68.59;93494.66;5064287;28;20503;-71
2021/12/12 04:51:14;;;;;;;2.30;2.00;;;;;;;6.97;70.21;93522.81;5068646;28;20396;-71
2021/12/12 04:54:07;;;;;;;2.20;2.10;;;;;;;7.79;68.23;93526.69;5066740;28;20468;-70
2021/12/12 04:56:47;;;;;;;2.43;2.23;;;;;;;6.45;71.60;93528.56;5067764;28;20492;-70
2021/12/12 04:59:31;;;;;;;2.40;2.20;;;;;;;6.86;70.14;93524.19;5066652;28;20432;-71
2021/12/12 05:02:02;;;;;;;1.83;1.70;;;;;;;6.50;71.59;93533.16;5067990;28;20519;-70
2021/12/12 05:04:35;;;;;;;1.93;1.83;;;;;;;6.32;72.11;93546.69;5068354;28;20389;-71
2021/12/12 05:07:19;;;;;;;2.23;2.13;;;;;;;6.89;69.92;93533.41;5066951;28;20792;-71
2021/12/12 05:09:49;;;;;;;2.30;1.70;;;;;;;6.12;72.03;93553.63;5068350;28;20392;-71
2021/12/12 05:12:39;;;;;;;1.23;1.20;;;;;;;6.76;70.07;93552.41;5067690;28;20429;-72
2021/12/12 05:15:17;;;;;;;1.37;1.27;;;;;;;6.53;70.13;93560.56;5065704;28;20460;-71
2021/12/12 05:17:48;;;;;;;1.30;1.20;;;;;;;7.20;67.56;93577.03;5067955;28;20504;-71
2021/12/12 05:20:20;;;;;;;0.93;0.93;;;;;;;6.69;68.65;93596.56;5067943;28;20518;-71
2021/12/12 05:22:50;;;;;;;1.20;1.20;;;;;;;6.65;69.04;93603.16;5067921;28;20918;-69
2021/12/12 05:25:20;;;;;;;1.07;1.07;;;;;;;6.45;69.71;93614.28;5066176;28;20443;-71
2021/12/12 05:27:49;;;;;;;2.23;1.10;;;;;;;6.71;68.59;93607.56;5066531;28;20433;-71
2021/12/12 05:30:22;;;;;;;1.40;1.30;;;;;;;6.75;69.02;93594.97;5067652;28;20423;-71
2021/12/12 05:32:49;;;;;;;1.20;1.00;;;;;;;5.97;70.55;93610.88;5066322;28;20433;-72
2021/12/12 05:35:19;;;;;;;1.00;1.00;;;;;;;6.41;68.94;93599.28;5066563;28;20482;-71
2021/12/12 05:37:51;;;;;;;1.70;1.50;;;;;;;6.18;70.29;93609.97;5067815;28;20417;-71
2021/12/12 05:40:19;;;;;;;1.20;1.10;;;;;;;6.35;69.02;93624.22;5067319;28;20524;-70
2021/12/12 05:42:47;;;;;;;1.40;1.40;;;;;;;6.69;67.87;93616.56;5067541;28;20428;-71
2021/12/12 05:45:14;;;;;;;0.90;0.90;;;;;;;6.05;69.78;93627.09;5067120;28;20401;-71
2021/12/12 05:47:40;;;;;;;1.20;1.10;;;;;;;6.17;69.56;93642.16;5067354;28;20417;-71
2021/12/12 05:50:08;;;;;;;1.23;1.13;;;;;;;6.58;68.51;93652.53;5067310;28;20419;-72
2021/12/12 05:52:34;;;;;;;1.07;1.00;;;;;;;6.76;67.52;93654.59;5067148;28;20409;-71
2021/12/12 05:55:02;;;;;;;1.50;1.40;;;;;;;6.97;67.17;93676.25;5067146;28;20480;-70
2021/12/12 05:57:30;;;;;;;1.60;1.50;;;;;;;6.70;67.23;93667.56;5066975;28;20413;-71
2021/12/12 05:59:57;;;;;;;1.10;1.10;;;;;;;6.52;68.32;93673.28;5066445;28;20424;-71
2021/12/12 06:02:25;;;;;;;1.47;0.90;;;;;;;6.03;69.34;93688.81;5067177;28;20492;-71
2021/12/12 06:04:53;;;;;;;2.10;1.50;;;;;;;6.38;68.33;93690.63;5067287;28;20413;-71
2021/12/12 06:07:21;;;;;;;1.00;1.00;;;;;;;5.60;70.95;93691.47;5067003;28;20421;-70
2021/12/12 06:09:48;;;;;;;1.70;1.60;;;;;;;5.55;71.03;93691.22;5066924;28;20429;-71
2021/12/12 06:12:15;;;;;;;2.17;1.90;;;;;;;5.73;71.50;93689.94;5066999;28;20470;-71
2021/12/12 06:14:41;;;;;;;1.80;1.67;;;;;;;5.71;70.81;93686.75;5065576;28;20476;-71
2021/12/12 06:17:10;;;;;;;1.80;1.70;;;;;;;5.64;71.19;93697.88;5066826;28;20420;-71
2021/12/12 06:19:37;;;;;;;2.43;2.23;;;;;;;6.13;70.25;93703.25;5066516;28;20852;-70
2021/12/12 06:22:04;;;;;;;1.70;1.60;;;;;;;5.79;69.76;93704.78;5066694;28;20417;-71
2021/12/12 06:24:31;;;;;;;1.80;1.70;;;;;;;5.55;71.65;93711.97;5066394;28;20401;-71
2021/12/12 06:27:05;;;;;;;2.37;2.20;;;;;;;5.94;69.80;93715.88;5066545;28;20428;-72
2021/12/12 06:29:31;;;;;;;2.30;2.20;;;;;;;5.74;70.44;93722.72;5065277;28;20461;-72
2021/12/12 06:31:57;;;;;;;1.73;1.60;;;;;;;5.70;70.20;93716.28;5066220;28;20479;-71
2021/12/12 06:34:23;;;;;;;1.63;1.53;;;;;;;5.75;70.05;93732.09;5064788;28;20225;-71
2021/12/12 06:36:51;;;;;;;1.80;1.70;;;;;;;5.32;70.40;93752.88;5065102;28;20439;-71
2021/12/12 06:39:19;;;;;;;1.67;1.53;;;;;;;6.05;68.26;93762.16;5066489;28;20177;-72
2021/12/12 06:41:46;;;;;;;1.50;1.40;;;;;;;6.14;67.58;93764.59;5066368;28;20451;-71
2021/12/12 06:44:13;;;;;;;1.30;1.20;;;;;;;5.31;69.87;93762.41;5066232;28;20916;-71
2021/12/12 06:46:41;;;;;;;1.57;1.30;;;;;;;5.75;69.26;93765.84;5065931;28;20427;-72
2021/12/12 06:49:09;;;;;;;1.30;1.20;;;;;;;4.97;71.61;93758.69;5066150;28;20401;-71
2021/12/12 06:51:39;;;;;;;1.00;1.00;;;;;;;5.33;69.85;93770.84;5064763;28;20421;-71
2021/12/12 06:54:05;;;;;;;1.73;1.20;;;;;;;5.31;69.91;93761.63;5064119;28;20437;-70
2021/12/12 06:56:31;;;;;;;0.90;0.90;;;;;;;5.25;70.05;93764.00;5065610;28;20784;-71
2021/12/12 06:58:58;;;;;;;1.00;0.97;;;;;;;5.32;69.91;93776.22;5064355;28;20499;-71
2021/12/12 07:01:28;;;;;;;1.07;0.60;;;;;;;5.23;69.92;93786.69;5064404;28;20500;-71
2021/12/12 07:03:54;;;;;;;1.17;1.07;;;;;;;5.37;69.71;93784.22;5046350;28;20437;-71
2021/12/12 07:06:24;;;;;;;1.00;1.00;;;;;;;5.41;69.44;93786.28;5046118;28;20414;-70
2021/12/12 07:08:55;;;;;;;0.90;0.90;;;;;;;5.42;69.96;93794.88;5045822;28;20490;-71
2021/12/12 07:11:23;;;;;;;1.17;1.03;;;;;;;4.99;71.20;93799.97;5043380;28;20391;-70
2021/12/12 07:13:50;;;;;;;1.17;1.10;;;;;;;4.96;71.83;93803.72;5044437;28;20449;-70
2021/12/12 07:16:17;;;;;;;1.50;1.40;;;;;;;4.80;73.26;93807.31;5045571;28;20413;-70
2021/12/12 07:18:44;;;;;;;1.20;1.10;;;;;;;5.02;72.35;93808.19;5044050;28;20458;-70
2021/12/12 07:21:12;;;;;;;1.20;1.20;;;;;;;5.04;72.22;93811.41;5045820;28;20425;-70
2021/12/12 07:23:40;;;;;;;1.13;0.80;;;;;;;5.00;72.30;93819.72;5046027;28;20415;-69
2021/12/12 07:26:08;;;;;;;1.33;1.20;;;;;;;4.84;73.57;93816.34;5045776;28;20410;-70
2021/12/12 07:28:35;;;;;;;1.60;1.50;;;;;;;4.60;73.93;93837.34;5045486;28;20434;-71
2021/12/12 07:31:09;;;;;;;1.70;1.50;;;;;;;4.92;73.04;93853.53;5045228;28;20410;-70
2021/12/12 07:33:35;;;;;;;1.33;1.23;;;;;;;4.72;73.56;93856.63;5045490;28;20461;-71
2021/12/12 07:36:05;;;;;;;1.30;1.20;;;;;;;4.97;72.65;93856.38;5045524;28;20919;-71
2021/12/12 07:38:32;;;;;;;0.70;0.70;;;;;;;4.76;72.57;93847.53;5045186;28;20979;-71
2021/12/12 07:40:59;;;;;;;1.00;1.00;;;;;;;4.61;73.71;93854.47;5043652;28;20421;-71
2021/12/12 07:43:28;;;;;;;3.07;1.20;;;;;;;4.64;73.76;93862.72;5045289;28;20421;-71
2021/12/12 07:45:53;;;;;;;1.63;1.20;;;;;;;5.03;72.19;93873.81;5045439;28;20463;-71
2021/12/12 07:48:20;;;;;;;1.00;1.00;;;;;;;4.83;72.39;93881.31;5045783;28;20430;-70
2021/12/12 07:50:46;;;;;;;1.00;1.00;;;;;;;5.08;72.13;93887.88;5045267;28;20919;-71
2021/12/12 07:53:13;;;;;;;1.10;1.00;;;;;;;5.04;71.05;93896.16;5045618;28;20548;-70
2021/12/12 07:55:40;;;;;;;1.63;1.53;;;;;;;5.17;71.52;93900.72;5043976;28;20945;-71
2021/12/12 07:58:07;;;;;;;1.83;1.73;;;;;;;5.02;71.51;93904.09;5045585;28;20410;-70
2021/12/12 08:00:34;;;;;;;2.30;2.10;;;;;;;5.87;68.83;93910.53;5045200;28;20473;-71
2021/12/12 08:03:01;;;;;;;2.03;1.93;;;;;;;5.32;70.27;93918.88;5045220;28;20747;-70
2021/12/12 08:05:29;;;;;;;2.40;2.20;;;;;;;5.28;70.64;93923.63;5045200;28;20406;-70
2021/12/12 08:08:00;;;;;;;2.40;2.20;;;;;;;5.43;69.30;93919.22;5044269;28;20425;-70
2021/12/12 08:10:27;;;;;;;1.50;1.40;;;;;;;5.32;68.62;93932.66;5045318;28;20406;-71
2021/12/12 08:12:53;;;;;;;2.27;1.33;;;;;;;5.24;69.93;93936.13;5043729;28;20437;-70
2021/12/12 08:15:19;;;;;;;1.70;1.60;;;;;;;5.52;69.59;93932.91;5045375;28;20411;-69
2021/12/12 08:17:45;;;;;;;1.10;1.10;;;;;;;5.56;68.78;93935.91;5045445;28;20422;-70
2021/12/12 08:20:13;;;;;;;2.57;2.00;;;;;;;4.91;71.17;93934.84;5045061;28;20458;-69
2021/12/12 08:22:40;;;;;;;3.67;2.10;;;;;;;4.98;71.69;93935.75;5045103;28;20425;-69
2021/12/12 08:25:09;;;;;;;2.07;1.70;;;;;;;5.03;70.64;93933.47;5044914;28;20409;-70
2021/12/12 08:27:35;;;;;;;3.20;2.60;;;;;;;5.47;70.13;93941.22;5045101;28;20422;-70
2021/12/12 08:30:01;;;;;;;2.23;2.03;;;;;;;5.94;68.37;93946.16;5043617;28;20420;-70
2021/12/12 08:32:27;;;;;;;2.43;2.30;;;;;;;5.75;69.04;93942.34;5044963;28;20453;-71
2021/12/12 08:34:53;;;;;;;2.80;2.00;;;;;;;5.90;68.99;93942.31;5043422;28;20450;-70
2021/12/12 08:37:19;;;;;;;3.30;2.03;;;;;;;5.39;69.98;93953.50;5044543;28;20425;-70
2021/12/12 08:39:46;;;;;;;1.70;1.60;;;;;;;5.03;70.94;93951.59;5044996;28;20460;-70
2021/12/12 08:42:13;;;;;;;2.40;2.27;;;;;;;5.51;70.15;93952.03;5044902;28;20175;-70
2021/12/12 08:44:39;;;;;;;3.90;3.30;;;;;;;5.65;70.05;93961.63;5044795;28;20485;-70
2021/12/12 08:47:10;;;;;;;2.83;2.63;;;;;;;5.74;69.48;93956.31;5044745;28;20454;-71
2021/12/12 08:49:39;;;;;;;2.23;2.13;;;;;;;5.18;71.14;93959.38;5044892;28;20397;-69
2021/12/12 08:52:19;;;;;;;3.00;2.23;;;;;;;5.31;70.28;93971.72;5044768;28;20526;-71
2021/12/12 08:54:53;;;;;;;1.90;1.80;;;;;;;4.56;71.66;93968.22;5076891;28;20939;-70
2021/12/12 08:57:38;;;;;;;2.37;2.17;;;;;;;5.29;69.60;93977.09;5045184;28;20417;-70
2021/12/12 09:00:09;;;;;;;2.43;2.33;;;;;;;4.98;69.65;93964.28;5044891;28;20383;-70
2021/12/12 09:02:35;;;;;;;2.17;2.07;;;;;;;4.96;69.23;93969.63;5045207;28;20870;-70
2021/12/12 09:05:13;;;;;;;2.20;1.77;;;;;;;4.58;70.43;93995.56;5044881;28;20398;-70
2021/12/12 09:07:44;;;;;;;2.83;2.30;;;;;;;4.65;70.69;93987.91;5043326;28;20468;-70
2021/12/12 09:10:31;;;;;;;2.20;2.00;;;;;;;4.21;71.54;93989.34;5043438;28;20398;-70
2021/12/12 09:13:12;;;;;;;2.73;2.53;;;;;;;4.13;73.32;93984.19;5044832;28;20422;-70
2021/12/12 09:15:46;;;;;;;2.83;2.60;;;;;;;4.13;74.05;93993.75;5043349;28;20394;-70
2021/12/12 09:18:30;;;;;;;2.37;2.27;;;;;;;4.38;72.54;94000.41;5044484;28;20956;-70
2021/12/12 09:21:06;;;;;;;2.73;2.20;;;;;;;4.73;71.23;94000.78;5043243;28;20394;-71
2021/12/12 09:23:39;;;;;;;2.30;2.10;;;;;;;4.60;71.98;94010.94;5044991;28;20425;-70
2021/12/12 09:26:10;;;;;;;3.37;3.07;;;;;;;4.66;71.71;94021.38;5044624;28;20463;-70
2021/12/12 09:28:47;;;;;;;3.27;3.00;;;;;;;4.44;71.68;94007.47;5044631;28;20418;-70
2021/12/12 09:31:17;;;;;;;2.30;2.20;;;;;;;4.72;70.85;94004.34;5044474;28;20386;-71
2021/12/12 09:33:54;;;;;;;1.90;1.80;;;;;;;3.96;72.14;94016.31;5045241;28;20821;-71
2021/12/12 09:36:24;;;;;;;3.37;3.07;;;;;;;4.85;70.07;94014.94;5080959;28;20405;-71
2021/12/12 09:39:08;;;;;;;3.63;2.50;;;;;;;5.13;69.14;94024.75;5046664;28;20436;-71
2021/12/12 09:42:01;;;;;;;2.27;2.17;;;;;;;4.43;70.74;94031.75;5047676;28;20383;-70
2021/12/12 09:44:48;;;;;;;3.20;3.00;;;;;;;4.57;70.85;94032.00;5048111;28;20387;-70
2021/12/12 09:48:15;;;;;;;3.77;3.47;;;;;;;4.76;70.26;94030.72;5048063;28;20749;-71
2021/12/12 09:51:17;;;;;;;3.27;3.07;;;;;;;5.28;68.50;94029.97;5047794;28;20492;-70
2021/12/12 09:53:58;;;;;;;4.47;4.17;;;;;;;5.80;66.15;94044.66;5046218;28;20460;-70
2021/12/12 09:56:40;;;;;;;4.53;2.90;;;;;;;5.16;67.03;94039.97;5048545;28;20797;-70
2021/12/12 09:59:16;;;;;;;3.50;3.20;;;;;;;5.32;67.10;94045.97;5079703;28;20571;-71
2021/12/12 10:01:57;;;;;;;2.83;2.63;;;;;;;4.89;67.55;94047.31;5047988;28;20398;-71
2021/12/12 10:04:50;;;;;;;3.37;3.07;;;;;;;5.73;65.81;94041.19;5047815;28;20421;-70
2021/12/12 10:07:50;;;;;;;4.03;3.63;;;;;;;5.67;65.48;94060.88;5047182;28;20495;-71
2021/12/12 10:10:26;;;;;;;4.47;4.07;;;;;;;5.86;65.59;94049.13;5040128;28;20441;-71
2021/12/12 10:13:12;;;;;;;4.40;4.00;;;;;;;5.36;66.87;94055.00;5047411;28;20480;-70
2021/12/12 10:15:43;;;;;;;2.50;2.40;;;;;;;5.56;66.17;94053.53;5045850;28;20429;-70
2021/12/12 10:18:18;;;;;;;4.07;3.77;;;;;;;5.82;65.51;94054.84;5078940;28;20414;-71
2021/12/12 10:21:01;;;;;;;3.43;3.20;;;;;;;5.48;66.22;94051.00;5079128;28;20494;-71
2021/12/12 10:24:01;;;;;;;4.23;3.90;;;;;;;5.78;65.51;94056.19;5047012;28;20460;-70
2021/12/12 10:26:37;;;;;;;7.77;4.37;;;;;;;5.32;67.16;94046.78;5047079;28;20401;-71
2021/12/12 10:29:08;;;;;;;6.00;5.10;;;;;;;5.81;65.47;94056.66;5045660;28;20444;-72
2021/12/12 10:31:43;;;;;;;5.50;4.93;;;;;;;6.30;64.58;94057.91;5046723;28;20403;-72
2021/12/12 10:34:54;;;;;;;4.10;3.80;;;;;;;6.35;64.41;94063.31;5078810;28;20481;-71
2021/12/12 10:37:47;;;;;;;2.40;2.20;;;;;;;5.00;68.78;94066.03;5046962;28;20394;-71
2021/12/12 10:40:22;;;;;;;2.50;1.97;;;;;;;4.89;69.26;94068.06;5046741;28;20430;-71
2021/12/12 10:42:52;;;;;;;4.33;4.03;;;;;;;5.70;66.82;94074.47;5046789;28;20401;-70
2021/12/12 10:45:23;;;;;;;4.57;4.23;;;;;;;5.89;67.47;94080.91;5078167;28;20499;-71
2021/12/12 10:48:01;;;;;;;5.20;4.80;;;;;;;6.32;66.19;94079.31;5046578;28;20391;-70
2021/12/12 10:50:43;;;;;;;6.17;4.83;;;;;;;6.61;65.08;94088.81;5045288;28;20432;-69
2021/12/12 10:53:31;;;;;;;3.83;3.60;;;;;;;6.78;63.51;94086.78;5046443;28;20390;-70
2021/12/12 10:56:31;;;;;;;5.50;4.50;;;;;;;6.79;64.53;94082.38;5046607;28;20559;-70
2021/12/12 10:58:59;;;;;;;5.03;4.67;;;;;;;6.09;66.15;94083.78;5046271;28;20418;-71
2021/12/12 11:01:33;;;;;;;4.90;4.50;;;;;;;6.11;65.53;94089.59;5046126;28;20410;-70
2021/12/12 11:04:09;;;;;;;4.50;4.20;;;;;;;6.08;66.44;94079.59;5046409;28;20437;-71
2021/12/12 11:06:46;;;;;;;5.20;4.70;;;;;;;6.51;64.99;94090.13;5046321;28;20390;-71
2021/12/12 11:09:29;;;;;;;6.30;5.77;;;;;;;6.44;65.37;94090.81;5046053;28;20952;-69
2021/12/12 11:12:12;;;;;;;6.17;5.67;;;;;;;6.43;65.72;94091.81;5046051;28;20454;-67
2021/12/12 11:14:47;;;;;;;6.30;5.90;;;;;;;6.53;65.72;94093.34;5046134;28;20462;-69
2021/12/12 11:17:17;;;;;;;8.10;7.00;;;;;;;6.45;65.69;94100.25;5045901;28;20394;-71
2021/12/12 11:19:53;;;;;;;8.13;7.47;;;;;;;6.57;65.96;94104.97;5045772;28;20536;-69
2021/12/12 11:22:28;;;;;;;6.80;5.80;;;;;;;5.96;67.09;94102.63;5046161;28;20891;-70
2021/12/12 11:25:06;;;;;;;7.50;6.73;;;;;;;6.22;66.90;94110.75;5044177;28;20421;-68
2021/12/12 11:27:39;;;;;;;9.20;5.73;;;;;;;6.15;66.48;94103.88;5045695;28;20386;-70
2021/12/12 11:30:21;;;;;;;7.57;4.87;;;;;;;6.15;66.75;94109.06;5045840;28;20413;-70
2021/12/12 11:32:49;;;;;;;4.93;4.57;;;;;;;5.77;67.27;94103.94;5044700;28;20422;-71
2021/12/12 11:35:19;;;;;;;3.90;3.60;;;;;;;4.73;70.31;94107.03;5077506;28;21077;-70
2021/12/12 11:38:03;;;;;;;2.90;2.70;;;;;;;4.54;71.40;94104.91;5044272;28;20414;-69
2021/12/12 11:40:42;;;;;;;5.63;5.23;;;;;;;5.12;69.91;94103.50;5077504;28;20437;-71
2021/12/12 11:43:10;;;;;;;6.20;5.33;;;;;;;5.45;68.10;94108.44;5045715;28;20390;-70
2021/12/12 11:45:41;;;;;;;2.93;2.83;;;;;;;5.25;68.26;94108.94;5044134;28;20509;-70
2021/12/12 11:48:27;;;;;;;3.47;3.20;;;;;;;4.89;69.70;94109.53;5045725;28;20389;-71
2021/12/12 11:51:25;;;;;;;3.90;3.60;;;;;;;4.83;70.89;94105.00;5045901;28;20398;-71
2021/12/12 11:54:02;;;;;;;5.30;4.80;;;;;;;5.48;69.31;94101.13;5040535;28;20473;-70
2021/12/12 11:56:30;;;;;;;5.97;4.30;;;;;;;5.07;70.39;94111.03;5043620;28;20397;-70
2021/12/12 11:59:05;;;;;;;6.90;6.30;;;;;;;5.67;68.76;94111.94;5044407;28;20485;-71
2021/12/12 12:01:52;;;;;;;6.90;6.20;;;;;;;5.01;70.21;94128.09;5043960;28;20880;-69
2021/12/12 12:04:30;;;;;;;6.60;6.00;;;;;;;4.98;70.90;94128.41;5044127;28;20429;-70
2021/12/12 12:07:18;;;;;;;6.30;5.70;;;;;;;5.57;69.48;94122.59;5045362;28;20390;-69
2021/12/12 12:09:55;;;;;;;4.93;4.50;;;;;;;5.23;69.27;94129.03;5045364;28;20433;-70
2021/12/12 12:12:52;;;;;;;6.70;6.10;;;;;;;5.81;68.22;94129.34;5045408;28;20383;-70
2021/12/12 12:15:51;;;;;;;5.53;5.13;;;;;;;5.33;68.89;94135.78;5045092;28;21030;-69
2021/12/12 12:18:45;;;;;;;6.40;5.70;;;;;;;5.61;67.99;94125.63;5044981;28;20394;-71